sensor_id;sensor_type;location;lat;lon;timestamp;temperature;humidity
7562;DHT22;3822;48.784;9.174;2022-10-16T00:01:27;19.20;97.10
7562;DHT22;3822;48.784;9.174;2022-10-16T00:03:56;19.10;97.10
7562;DHT22;3822;48.784;9.174;2022-10-16T00:06:24;19.10;97.20
7562;DHT22;3822;48.784;9.174;2022-10-16T00:08:52;19.10;97.20
7562;DHT22;3822;48.784;9.174;2022-10-16T00:11:30;19.10;97.20
7562;DHT22;3822;48.784;9.174;2022-10-16T00:14:05;19.10;97.20
7562;DHT22;3822;48.784;9.174;2022-10-16T00:16:34;19.10;97.60
7562;DHT22;3822;48.784;9.174;2022-10-16T00:19:02;19.10;97.30
7562;DHT22;3822;48.784;9.174;2022-10-16T00:21:30;19.00;97.30
7562;DHT22;3822;48.784;9.174;2022-10-16T00:24:05;19.00;97.30
7562;DHT22;3822;48.784;9.174;2022-10-16T00:26:35;19.00;97.30
7562;DHT22;3822;48.784;9.174;2022-10-16T00:29:04;19.00;97.40
7562;DHT22;3822;48.784;9.174;2022-10-16T00:31:31;19.00;97.40
7562;DHT22;3822;48.784;9.174;2022-10-16T00:33:57;19.00;97.40
7562;DHT22;3822;48.784;9.174;2022-10-16T00:36:25;19.00;97.40
7562;DHT22;3822;48.784;9.174;2022-10-16T00:38:54;19.00;97.40
7562;DHT22;3822;48.784;9.174;2022-10-16T00:41:22;18.90;97.40
7562;DHT22;3822;48.784;9.174;2022-10-16T00:43:58;18.90;97.40
7562;DHT22;3822;48.784;9.174;2022-10-16T00:46:37;18.90;97.50
7562;DHT22;3822;48.784;9.174;2022-10-16T00:49:18;18.90;97.50
7562;DHT22;3822;48.784;9.174;2022-10-16T00:51:55;18.90;97.50
7562;DHT22;3822;48.784;9.174;2022-10-16T00:54:28;18.80;97.40
7562;DHT22;3822;48.784;9.174;2022-10-16T00:57:00;18.80;97.50
7562;DHT22;3822;48.784;9.174;2022-10-16T00:59:32;18.80;97.50
7562;DHT22;3822;48.784;9.174;2022-10-16T01:02:04;18.80;97.50
7562;DHT22;3822;48.784;9.174;2022-10-16T01:04:40;18.80;97.50
7562;DHT22;3822;48.784;9.174;2022-10-16T01:07:25;18.80;97.60
7562;DHT22;3822;48.784;9.174;2022-10-16T01:18:28;18.80;97.80
7562;DHT22;3822;48.784;9.174;2022-10-16T01:21:04;18.70;97.70
7562;DHT22;3822;48.784;9.174;2022-10-16T01:29:59;18.70;97.70
7562;DHT22;3822;48.784;9.174;2022-10-16T01:35:15;18.70;97.90
7562;DHT22;3822;48.784;9.174;2022-10-16T01:38:03;20.10;98.50
7562;DHT22;3822;48.784;9.174;2022-10-16T01:40:34;18.70;98.00
7562;DHT22;3822;48.784;9.174;2022-10-16T01:43:08;18.60;98.00
7562;DHT22;3822;48.784;9.174;2022-10-16T01:45:40;18.60;98.00
7562;DHT22;3822;48.784;9.174;2022-10-16T01:48:14;18.60;98.00
7562;DHT22;3822;48.784;9.174;2022-10-16T01:50:47;18.60;98.10
7562;DHT22;3822;48.784;9.174;2022-10-16T01:53:18;18.60;98.10
7562;DHT22;3822;48.784;9.174;2022-10-16T01:55:48;18.60;98.10
7562;DHT22;3822;48.784;9.174;2022-10-16T01:58:15;18.60;98.10
7562;DHT22;3822;48.784;9.174;2022-10-16T02:00:44;18.60;98.10
7562;DHT22;3822;48.784;9.174;2022-10-16T02:03:13;18.60;98.10
7562;DHT22;3822;48.784;9.174;2022-10-16T02:05:50;18.60;98.10
7562;DHT22;3822;48.784;9.174;2022-10-16T02:08:20;18.60;98.20
7562;DHT22;3822;48.784;9.174;2022-10-16T02:10:49;18.60;98.20
7562;DHT22;3822;48.784;9.174;2022-10-16T02:13:35;18.60;98.20
7562;DHT22;3822;48.784;9.174;2022-10-16T02:16:05;18.60;98.20
7562;DHT22;3822;48.784;9.174;2022-10-16T02:18:32;18.60;98.20
7562;DHT22;3822;48.784;9.174;2022-10-16T02:21:00;18.60;98.30
7562;DHT22;3822;48.784;9.174;2022-10-16T02:23:54;18.60;98.30
7562;DHT22;3822;48.784;9.174;2022-10-16T02:26:49;18.60;98.30
7562;DHT22;3822;48.784;9.174;2022-10-16T02:29:23;18.60;98.30
7562;DHT22;3822;48.784;9.174;2022-10-16T02:31:55;18.60;98.30
7562;DHT22;3822;48.784;9.174;2022-10-16T02:34:25;18.60;98.30
7562;DHT22;3822;48.784;9.174;2022-10-16T02:36:54;18.60;98.30
7562;DHT22;3822;48.784;9.174;2022-10-16T02:39:22;18.60;98.30
7562;DHT22;3822;48.784;9.174;2022-10-16T02:41:50;18.60;98.30
7562;DHT22;3822;48.784;9.174;2022-10-16T02:44:19;18.60;98.30
7562;DHT22;3822;48.784;9.174;2022-10-16T02:46:45;18.60;98.30
7562;DHT22;3822;48.784;9.174;2022-10-16T02:49:11;18.60;98.20
7562;DHT22;3822;48.784;9.174;2022-10-16T02:51:38;18.60;98.20
7562;DHT22;3822;48.784;9.174;2022-10-16T02:54:04;18.70;98.30
7562;DHT22;3822;48.784;9.174;2022-10-16T02:56:31;18.60;98.20
7562;DHT22;3822;48.784;9.174;2022-10-16T02:58:57;18.60;98.20
7562;DHT22;3822;48.784;9.174;2022-10-16T03:01:24;18.60;98.20
7562;DHT22;3822;48.784;9.174;2022-10-16T03:03:51;18.60;98.10
7562;DHT22;3822;48.784;9.174;2022-10-16T03:06:17;18.60;98.10
7562;DHT22;3822;48.784;9.174;2022-10-16T03:08:43;18.60;98.10
7562;DHT22;3822;48.784;9.174;2022-10-16T03:11:10;18.60;98.10
7562;DHT22;3822;48.784;9.174;2022-10-16T03:13:37;18.60;98.10
7562;DHT22;3822;48.784;9.174;2022-10-16T03:16:03;18.60;98.10
7562;DHT22;3822;48.784;9.174;2022-10-16T03:18:30;18.60;98.10
7562;DHT22;3822;48.784;9.174;2022-10-16T03:20:56;18.60;98.10
7562;DHT22;3822;48.784;9.174;2022-10-16T03:23:23;18.60;98.10
7562;DHT22;3822;48.784;9.174;2022-10-16T03:25:49;18.60;98.10
7562;DHT22;3822;48.784;9.174;2022-10-16T03:28:16;18.60;98.10
7562;DHT22;3822;48.784;9.174;2022-10-16T03:30:43;18.60;98.20
7562;DHT22;3822;48.784;9.174;2022-10-16T03:33:10;18.60;98.20
7562;DHT22;3822;48.784;9.174;2022-10-16T03:35:36;18.60;98.20
7562;DHT22;3822;48.784;9.174;2022-10-16T03:38:03;18.60;98.30
7562;DHT22;3822;48.784;9.174;2022-10-16T03:40:30;18.60;98.30
7562;DHT22;3822;48.784;9.174;2022-10-16T03:42:58;18.50;98.20
7562;DHT22;3822;48.784;9.174;2022-10-16T03:45:25;18.50;98.30
7562;DHT22;3822;48.784;9.174;2022-10-16T03:47:52;18.50;98.30
7562;DHT22;3822;48.784;9.174;2022-10-16T03:50:19;18.50;98.30
7562;DHT22;3822;48.784;9.174;2022-10-16T03:52:46;18.50;98.40
7562;DHT22;3822;48.784;9.174;2022-10-16T03:55:12;18.50;98.40
7562;DHT22;3822;48.784;9.174;2022-10-16T03:57:38;18.50;98.40
7562;DHT22;3822;48.784;9.174;2022-10-16T04:00:05;19.40;98.80
7562;DHT22;3822;48.784;9.174;2022-10-16T04:02:32;18.50;98.50
7562;DHT22;3822;48.784;9.174;2022-10-16T04:04:59;18.50;98.50
7562;DHT22;3822;48.784;9.174;2022-10-16T04:07:25;18.40;98.50
7562;DHT22;3822;48.784;9.174;2022-10-16T04:09:52;18.50;98.50
7562;DHT22;3822;48.784;9.174;2022-10-16T04:12:18;18.50;98.50
7562;DHT22;3822;48.784;9.174;2022-10-16T04:14:45;18.40;98.50
7562;DHT22;3822;48.784;9.174;2022-10-16T04:17:11;18.40;98.50
7562;DHT22;3822;48.784;9.174;2022-10-16T04:19:37;18.40;98.60
7562;DHT22;3822;48.784;9.174;2022-10-16T04:22:04;18.40;98.60
7562;DHT22;3822;48.784;9.174;2022-10-16T04:24:31;18.40;98.60
7562;DHT22;3822;48.784;9.174;2022-10-16T04:26:57;18.40;98.60
7562;DHT22;3822;48.784;9.174;2022-10-16T04:29:24;18.40;98.70
7562;DHT22;3822;48.784;9.174;2022-10-16T04:31:50;18.40;98.70
7562;DHT22;3822;48.784;9.174;2022-10-16T04:34:17;18.40;98.70
7562;DHT22;3822;48.784;9.174;2022-10-16T04:36:43;18.40;98.70
7562;DHT22;3822;48.784;9.174;2022-10-16T04:39:09;18.40;98.70
7562;DHT22;3822;48.784;9.174;2022-10-16T04:41:36;18.30;98.70
7562;DHT22;3822;48.784;9.174;2022-10-16T04:44:02;18.30;98.70
7562;DHT22;3822;48.784;9.174;2022-10-16T04:46:29;18.30;99.00
7562;DHT22;3822;48.784;9.174;2022-10-16T04:48:55;18.30;98.70
7562;DHT22;3822;48.784;9.174;2022-10-16T04:51:22;18.30;98.70
7562;DHT22;3822;48.784;9.174;2022-10-16T04:53:48;18.30;98.70
7562;DHT22;3822;48.784;9.174;2022-10-16T04:56:15;18.30;98.80
7562;DHT22;3822;48.784;9.174;2022-10-16T04:58:41;18.30;98.80
7562;DHT22;3822;48.784;9.174;2022-10-16T05:01:08;18.30;98.80
7562;DHT22;3822;48.784;9.174;2022-10-16T05:03:35;18.30;98.80
7562;DHT22;3822;48.784;9.174;2022-10-16T05:06:01;18.30;98.80
7562;DHT22;3822;48.784;9.174;2022-10-16T05:08:30;18.30;98.80
7562;DHT22;3822;48.784;9.174;2022-10-16T05:10:56;18.30;98.80
7562;DHT22;3822;48.784;9.174;2022-10-16T05:13:23;18.40;98.90
7562;DHT22;3822;48.784;9.174;2022-10-16T05:15:49;18.20;98.80
7562;DHT22;3822;48.784;9.174;2022-10-16T05:18:18;18.30;98.90
7562;DHT22;3822;48.784;9.174;2022-10-16T05:20:45;18.20;98.80
7562;DHT22;3822;48.784;9.174;2022-10-16T05:23:11;18.30;98.90
7562;DHT22;3822;48.784;9.174;2022-10-16T05:25:38;18.30;98.90
7562;DHT22;3822;48.784;9.174;2022-10-16T05:28:04;18.20;98.90
7562;DHT22;3822;48.784;9.174;2022-10-16T05:30:31;18.20;98.90
7562;DHT22;3822;48.784;9.174;2022-10-16T05:32:57;18.20;98.90
7562;DHT22;3822;48.784;9.174;2022-10-16T05:35:24;18.20;98.90
7562;DHT22;3822;48.784;9.174;2022-10-16T05:37:50;18.20;98.90
7562;DHT22;3822;48.784;9.174;2022-10-16T05:40:17;18.20;99.00
7562;DHT22;3822;48.784;9.174;2022-10-16T05:42:43;18.20;99.00
7562;DHT22;3822;48.784;9.174;2022-10-16T05:45:10;18.20;99.00
7562;DHT22;3822;48.784;9.174;2022-10-16T05:47:38;18.20;99.00
7562;DHT22;3822;48.784;9.174;2022-10-16T05:50:05;17.90;98.80
7562;DHT22;3822;48.784;9.174;2022-10-16T05:52:32;18.20;99.00
7562;DHT22;3822;48.784;9.174;2022-10-16T05:54:58;18.20;99.00
7562;DHT22;3822;48.784;9.174;2022-10-16T05:57:25;18.20;99.00
7562;DHT22;3822;48.784;9.174;2022-10-16T05:59:51;18.20;99.00
7562;DHT22;3822;48.784;9.174;2022-10-16T06:02:18;18.20;99.00
7562;DHT22;3822;48.784;9.174;2022-10-16T06:04:44;18.20;99.00
7562;DHT22;3822;48.784;9.174;2022-10-16T06:07:11;18.10;99.00
7562;DHT22;3822;48.784;9.174;2022-10-16T06:09:37;18.10;98.90
7562;DHT22;3822;48.784;9.174;2022-10-16T06:12:04;18.10;99.00
7562;DHT22;3822;48.784;9.174;2022-10-16T06:14:30;18.10;99.00
7562;DHT22;3822;48.784;9.174;2022-10-16T06:16:57;18.10;99.00
7562;DHT22;3822;48.784;9.174;2022-10-16T06:19:23;18.10;99.10
7562;DHT22;3822;48.784;9.174;2022-10-16T06:21:50;18.10;99.10
7562;DHT22;3822;48.784;9.174;2022-10-16T06:24:16;18.20;99.20
7562;DHT22;3822;48.784;9.174;2022-10-16T06:26:43;18.20;99.20
7562;DHT22;3822;48.784;9.174;2022-10-16T06:29:09;18.20;99.20
7562;DHT22;3822;48.784;9.174;2022-10-16T06:31:36;18.20;99.20
7562;DHT22;3822;48.784;9.174;2022-10-16T06:34:02;18.20;99.20
7562;DHT22;3822;48.784;9.174;2022-10-16T06:36:30;18.20;99.20
7562;DHT22;3822;48.784;9.174;2022-10-16T06:38:57;18.20;99.20
7562;DHT22;3822;48.784;9.174;2022-10-16T06:41:23;18.20;99.30
7562;DHT22;3822;48.784;9.174;2022-10-16T06:43:50;18.20;99.30
7562;DHT22;3822;48.784;9.174;2022-10-16T06:46:21;18.20;99.30
7562;DHT22;3822;48.784;9.174;2022-10-16T06:48:49;18.20;99.30
7562;DHT22;3822;48.784;9.174;2022-10-16T06:51:21;18.20;99.30
7562;DHT22;3822;48.784;9.174;2022-10-16T06:53:51;18.20;99.30
7562;DHT22;3822;48.784;9.174;2022-10-16T06:56:24;18.30;99.30
7562;DHT22;3822;48.784;9.174;2022-10-16T06:58:52;18.30;99.20
7562;DHT22;3822;48.784;9.174;2022-10-16T07:01:22;18.30;99.20
7562;DHT22;3822;48.784;9.174;2022-10-16T07:03:50;18.30;99.20
7562;DHT22;3822;48.784;9.174;2022-10-16T07:06:18;18.30;99.10
7562;DHT22;3822;48.784;9.174;2022-10-16T07:08:47;18.30;99.10
7562;DHT22;3822;48.784;9.174;2022-10-16T07:11:17;18.40;99.00
7562;DHT22;3822;48.784;9.174;2022-10-16T07:13:46;18.40;99.10
7562;DHT22;3822;48.784;9.174;2022-10-16T07:16:18;18.40;99.10
7562;DHT22;3822;48.784;9.174;2022-10-16T07:18:45;18.40;99.10
7562;DHT22;3822;48.784;9.174;2022-10-16T07:21:19;18.50;99.00
7562;DHT22;3822;48.784;9.174;2022-10-16T07:23:53;18.50;98.90
7562;DHT22;3822;48.784;9.174;2022-10-16T07:26:22;18.50;98.70
7562;DHT22;3822;48.784;9.174;2022-10-16T07:28:49;18.50;98.60
7562;DHT22;3822;48.784;9.174;2022-10-16T07:31:17;18.60;98.60
7562;DHT22;3822;48.784;9.174;2022-10-16T07:33:47;18.60;98.60
7562;DHT22;3822;48.784;9.174;2022-10-16T07:36:16;18.60;98.40
7562;DHT22;3822;48.784;9.174;2022-10-16T07:38:44;18.70;98.40
7562;DHT22;3822;48.784;9.174;2022-10-16T07:41:14;18.60;98.20
7562;DHT22;3822;48.784;9.174;2022-10-16T07:43:47;18.70;98.20
7562;DHT22;3822;48.784;9.174;2022-10-16T07:46:15;18.70;98.10
7562;DHT22;3822;48.784;9.174;2022-10-16T07:48:42;18.70;98.10
7562;DHT22;3822;48.784;9.174;2022-10-16T07:51:12;18.70;98.00
7562;DHT22;3822;48.784;9.174;2022-10-16T07:53:40;18.70;98.00
7562;DHT22;3822;48.784;9.174;2022-10-16T07:56:07;18.80;97.90
7562;DHT22;3822;48.784;9.174;2022-10-16T07:58:34;18.80;97.90
7562;DHT22;3822;48.784;9.174;2022-10-16T08:01:05;18.80;97.80
7562;DHT22;3822;48.784;9.174;2022-10-16T08:03:33;18.40;97.60
7562;DHT22;3822;48.784;9.174;2022-10-16T08:06:00;18.80;97.80
7562;DHT22;3822;48.784;9.174;2022-10-16T08:08:28;18.90;97.80
7562;DHT22;3822;48.784;9.174;2022-10-16T08:10:55;18.90;97.80
7562;DHT22;3822;48.784;9.174;2022-10-16T08:13:21;18.90;97.70
7562;DHT22;3822;48.784;9.174;2022-10-16T08:15:48;19.00;97.70
7562;DHT22;3822;48.784;9.174;2022-10-16T08:18:15;19.00;97.60
7562;DHT22;3822;48.784;9.174;2022-10-16T08:20:43;19.00;97.60
7562;DHT22;3822;48.784;9.174;2022-10-16T08:23:11;19.10;97.60
7562;DHT22;3822;48.784;9.174;2022-10-16T08:25:39;19.10;97.60
7562;DHT22;3822;48.784;9.174;2022-10-16T08:28:10;19.10;97.50
7562;DHT22;3822;48.784;9.174;2022-10-16T08:30:37;19.20;97.50
7562;DHT22;3822;48.784;9.174;2022-10-16T08:33:03;19.30;97.40
7562;DHT22;3822;48.784;9.174;2022-10-16T08:35:30;19.30;97.30
7562;DHT22;3822;48.784;9.174;2022-10-16T08:37:57;19.40;97.30
7562;DHT22;3822;48.784;9.174;2022-10-16T08:40:28;19.40;97.20
7562;DHT22;3822;48.784;9.174;2022-10-16T08:43:15;19.50;97.10
7562;DHT22;3822;48.784;9.174;2022-10-16T08:46:43;19.50;97.00
7562;DHT22;3822;48.784;9.174;2022-10-16T08:49:23;19.50;96.80
7562;DHT22;3822;48.784;9.174;2022-10-16T08:51:51;19.50;96.80
7562;DHT22;3822;48.784;9.174;2022-10-16T08:54:31;19.60;96.70
7562;DHT22;3822;48.784;9.174;2022-10-16T08:57:25;19.60;96.60
7562;DHT22;3822;48.784;9.174;2022-10-16T08:59:53;19.70;96.60
7562;DHT22;3822;48.784;9.174;2022-10-16T09:02:34;19.60;96.60
7562;DHT22;3822;48.784;9.174;2022-10-16T09:05:36;19.70;96.50
7562;DHT22;3822;48.784;9.174;2022-10-16T09:08:46;19.70;96.40
7562;DHT22;3822;48.784;9.174;2022-10-16T09:11:23;19.80;96.40
7562;DHT22;3822;48.784;9.174;2022-10-16T09:14:12;19.80;96.40
7562;DHT22;3822;48.784;9.174;2022-10-16T09:17:22;19.80;96.30
7562;DHT22;3822;48.784;9.174;2022-10-16T09:20:03;19.90;96.40
7562;DHT22;3822;48.784;9.174;2022-10-16T09:23:10;19.90;96.30
7562;DHT22;3822;48.784;9.174;2022-10-16T09:25:44;20.00;96.20
7562;DHT22;3822;48.784;9.174;2022-10-16T09:28:14;20.00;96.20
7562;DHT22;3822;48.784;9.174;2022-10-16T09:30:41;20.10;96.20
7562;DHT22;3822;48.784;9.174;2022-10-16T09:33:09;20.20;96.10
7562;DHT22;3822;48.784;9.174;2022-10-16T09:35:50;20.20;96.00
7562;DHT22;3822;48.784;9.174;2022-10-16T09:38:37;20.30;95.90
7562;DHT22;3822;48.784;9.174;2022-10-16T09:41:24;20.30;95.80
7562;DHT22;3822;48.784;9.174;2022-10-16T09:43:59;20.30;95.60
7562;DHT22;3822;48.784;9.174;2022-10-16T09:46:30;20.40;95.50
7562;DHT22;3822;48.784;9.174;2022-10-16T09:48:59;20.40;95.40
7562;DHT22;3822;48.784;9.174;2022-10-16T09:51:34;20.50;95.40
7562;DHT22;3822;48.784;9.174;2022-10-16T09:54:11;20.50;95.30
7562;DHT22;3822;48.784;9.174;2022-10-16T09:56:41;20.50;95.20
7562;DHT22;3822;48.784;9.174;2022-10-16T09:59:26;20.60;95.20
7562;DHT22;3822;48.784;9.174;2022-10-16T10:01:54;20.70;95.10
7562;DHT22;3822;48.784;9.174;2022-10-16T10:04:23;20.70;95.10
7562;DHT22;3822;48.784;9.174;2022-10-16T10:06:55;20.70;95.10
7562;DHT22;3822;48.784;9.174;2022-10-16T10:09:26;20.90;95.00
7562;DHT22;3822;48.784;9.174;2022-10-16T10:12:00;20.90;94.90
7562;DHT22;3822;48.784;9.174;2022-10-16T10:14:37;21.00;94.80
7562;DHT22;3822;48.784;9.174;2022-10-16T10:19:43;21.10;94.60
7562;DHT22;3822;48.784;9.174;2022-10-16T10:25:12;21.30;94.50
7562;DHT22;3822;48.784;9.174;2022-10-16T10:31:01;21.50;94.10
7562;DHT22;3822;48.784;9.174;2022-10-16T10:33:41;21.60;93.90
7562;DHT22;3822;48.784;9.174;2022-10-16T10:36:39;21.70;93.80
7562;DHT22;3822;48.784;9.174;2022-10-16T10:39:27;21.80;93.70
7562;DHT22;3822;48.784;9.174;2022-10-16T10:48:20;22.10;93.90
7562;DHT22;3822;48.784;9.174;2022-10-16T10:50:52;22.10;94.00
7562;DHT22;3822;48.784;9.174;2022-10-16T10:53:52;22.20;93.80
7562;DHT22;3822;48.784;9.174;2022-10-16T10:59:35;22.40;93.90
7562;DHT22;3822;48.784;9.174;2022-10-16T11:05:46;22.60;93.60
7562;DHT22;3822;48.784;9.174;2022-10-16T11:16:59;23.10;93.10
7562;DHT22;3822;48.784;9.174;2022-10-16T11:25:41;23.30;92.70
7562;DHT22;3822;48.784;9.174;2022-10-16T11:28:35;23.40;92.60
7562;DHT22;3822;48.784;9.174;2022-10-16T11:33:55;23.70;92.40
7562;DHT22;3822;48.784;9.174;2022-10-16T11:36:38;23.70;92.10
7562;DHT22;3822;48.784;9.174;2022-10-16T11:53:18;24.50;91.50
7562;DHT22;3822;48.784;9.174;2022-10-16T11:56:06;24.70;91.00
7562;DHT22;3822;48.784;9.174;2022-10-16T11:58:41;24.90;90.60
7562;DHT22;3822;48.784;9.174;2022-10-16T12:01:25;25.10;90.10
7562;DHT22;3822;48.784;9.174;2022-10-16T12:06:58;25.40;88.90
7562;DHT22;3822;48.784;9.174;2022-10-16T12:09:36;25.60;87.60
7562;DHT22;3822;48.784;9.174;2022-10-16T12:12:25;25.80;87.10
7562;DHT22;3822;48.784;9.174;2022-10-16T12:15:19;26.00;86.30
7562;DHT22;3822;48.784;9.174;2022-10-16T12:17:46;26.20;85.00
7562;DHT22;3822;48.784;9.174;2022-10-16T12:22:51;26.50;83.40
7562;DHT22;3822;48.784;9.174;2022-10-16T12:25:24;26.60;82.00
7562;DHT22;3822;48.784;9.174;2022-10-16T12:27:56;26.70;81.80
7562;DHT22;3822;48.784;9.174;2022-10-16T12:30:35;26.90;81.70
7562;DHT22;3822;48.784;9.174;2022-10-16T12:33:19;27.00;81.30
7562;DHT22;3822;48.784;9.174;2022-10-16T12:36:30;27.10;81.00
7562;DHT22;3822;48.784;9.174;2022-10-16T12:38:59;27.20;80.60
7562;DHT22;3822;48.784;9.174;2022-10-16T12:41:36;27.30;79.30
7562;DHT22;3822;48.784;9.174;2022-10-16T12:44:23;27.30;79.40
7562;DHT22;3822;48.784;9.174;2022-10-16T12:46:50;27.40;79.40
7562;DHT22;3822;48.784;9.174;2022-10-16T12:51:58;27.60;78.60
7562;DHT22;3822;48.784;9.174;2022-10-16T12:54:30;27.60;78.20
7562;DHT22;3822;48.784;9.174;2022-10-16T12:59:44;27.80;77.30
7562;DHT22;3822;48.784;9.174;2022-10-16T13:05:21;27.80;76.70
7562;DHT22;3822;48.784;9.174;2022-10-16T13:22:48;27.90;76.20
7562;DHT22;3822;48.784;9.174;2022-10-16T13:28:11;27.90;75.30
7562;DHT22;3822;48.784;9.174;2022-10-16T13:33:35;27.90;74.60
7562;DHT22;3822;48.784;9.174;2022-10-16T13:36:04;27.90;74.00
7562;DHT22;3822;48.784;9.174;2022-10-16T13:38:34;27.80;74.00
7562;DHT22;3822;48.784;9.174;2022-10-16T13:41:12;27.80;74.00
7562;DHT22;3822;48.784;9.174;2022-10-16T13:43:46;27.80;73.80
7562;DHT22;3822;48.784;9.174;2022-10-16T13:46:21;27.80;73.80
7562;DHT22;3822;48.784;9.174;2022-10-16T13:48:59;27.80;73.80
7562;DHT22;3822;48.784;9.174;2022-10-16T13:51:27;27.70;73.60
7562;DHT22;3822;48.784;9.174;2022-10-16T13:53:56;27.70;73.80
7562;DHT22;3822;48.784;9.174;2022-10-16T13:56:26;27.70;73.70
7562;DHT22;3822;48.784;9.174;2022-10-16T13:59:01;27.60;73.70
7562;DHT22;3822;48.784;9.174;2022-10-16T14:01:41;27.60;73.60
7562;DHT22;3822;48.784;9.174;2022-10-16T14:04:10;27.60;73.50
7562;DHT22;3822;48.784;9.174;2022-10-16T14:06:43;27.60;73.30
7562;DHT22;3822;48.784;9.174;2022-10-16T14:12:06;27.50;72.70
7562;DHT22;3822;48.784;9.174;2022-10-16T14:14:41;27.50;72.80
7562;DHT22;3822;48.784;9.174;2022-10-16T14:17:20;27.40;73.10
7562;DHT22;3822;48.784;9.174;2022-10-16T14:19:52;27.30;73.30
7562;DHT22;3822;48.784;9.174;2022-10-16T14:22:31;27.30;73.70
7562;DHT22;3822;48.784;9.174;2022-10-16T14:30:33;27.20;74.40
7562;DHT22;3822;48.784;9.174;2022-10-16T14:33:05;27.20;74.60
7562;DHT22;3822;48.784;9.174;2022-10-16T14:38:05;27.10;74.50
7562;DHT22;3822;48.784;9.174;2022-10-16T14:40:35;27.00;74.60
7562;DHT22;3822;48.784;9.174;2022-10-16T14:43:03;27.00;74.90
7562;DHT22;3822;48.784;9.174;2022-10-16T14:45:33;26.90;74.80
7562;DHT22;3822;48.784;9.174;2022-10-16T14:48:04;27.00;75.00
7562;DHT22;3822;48.784;9.174;2022-10-16T14:50:32;26.90;75.10
7562;DHT22;3822;48.784;9.174;2022-10-16T14:52:59;26.90;75.10
7562;DHT22;3822;48.784;9.174;2022-10-16T14:55:25;26.90;75.30
7562;DHT22;3822;48.784;9.174;2022-10-16T14:57:52;26.90;75.50
7562;DHT22;3822;48.784;9.174;2022-10-16T15:00:21;26.90;75.30
7562;DHT22;3822;48.784;9.174;2022-10-16T15:02:49;26.90;75.30
7562;DHT22;3822;48.784;9.174;2022-10-16T15:05:23;26.90;75.70
7562;DHT22;3822;48.784;9.174;2022-10-16T15:07:54;26.90;75.90
7562;DHT22;3822;48.784;9.174;2022-10-16T15:10:22;26.90;76.20
7562;DHT22;3822;48.784;9.174;2022-10-16T15:12:51;27.00;76.60
7562;DHT22;3822;48.784;9.174;2022-10-16T15:17:50;27.10;76.80
7562;DHT22;3822;48.784;9.174;2022-10-16T15:20:20;27.20;77.00
7562;DHT22;3822;48.784;9.174;2022-10-16T15:22:46;27.30;77.00
7562;DHT22;3822;48.784;9.174;2022-10-16T15:25:25;27.40;77.10
7562;DHT22;3822;48.784;9.174;2022-10-16T15:27:55;27.50;77.00
7562;DHT22;3822;48.784;9.174;2022-10-16T15:30:21;27.70;76.90
7562;DHT22;3822;48.784;9.174;2022-10-16T15:32:48;27.90;76.60
7562;DHT22;3822;48.784;9.174;2022-10-16T15:35:14;28.00;76.20
7562;DHT22;3822;48.784;9.174;2022-10-16T15:37:41;28.10;76.00
7562;DHT22;3822;48.784;9.174;2022-10-16T15:40:09;28.30;75.80
7562;DHT22;3822;48.784;9.174;2022-10-16T15:42:36;28.40;75.40
7562;DHT22;3822;48.784;9.174;2022-10-16T15:45:03;28.40;75.10
7562;DHT22;3822;48.784;9.174;2022-10-16T15:47:30;28.40;74.80
7562;DHT22;3822;48.784;9.174;2022-10-16T15:49:56;29.00;75.10
7562;DHT22;3822;48.784;9.174;2022-10-16T15:52:23;28.20;74.70
7562;DHT22;3822;48.784;9.174;2022-10-16T15:54:49;28.10;74.90
7562;DHT22;3822;48.784;9.174;2022-10-16T15:57:16;28.00;75.00
7562;DHT22;3822;48.784;9.174;2022-10-16T15:59:42;27.90;75.30
7562;DHT22;3822;48.784;9.174;2022-10-16T16:02:09;27.80;75.50
7562;DHT22;3822;48.784;9.174;2022-10-16T16:04:36;27.70;75.80
7562;DHT22;3822;48.784;9.174;2022-10-16T16:07:02;27.60;76.10
7562;DHT22;3822;48.784;9.174;2022-10-16T16:09:29;27.40;76.30
7562;DHT22;3822;48.784;9.174;2022-10-16T16:11:56;27.30;76.60
7562;DHT22;3822;48.784;9.174;2022-10-16T16:14:24;27.20;76.90
7562;DHT22;3822;48.784;9.174;2022-10-16T16:16:52;27.00;77.20
7562;DHT22;3822;48.784;9.174;2022-10-16T16:19:18;27.00;77.40
7562;DHT22;3822;48.784;9.174;2022-10-16T16:21:50;26.80;77.40
7562;DHT22;3822;48.784;9.174;2022-10-16T16:24:16;26.70;77.90
7562;DHT22;3822;48.784;9.174;2022-10-16T16:26:43;26.60;78.30
7562;DHT22;3822;48.784;9.174;2022-10-16T16:29:14;26.50;78.80
7562;DHT22;3822;48.784;9.174;2022-10-16T16:31:41;26.40;79.00
7562;DHT22;3822;48.784;9.174;2022-10-16T16:34:08;26.30;79.30
7562;DHT22;3822;48.784;9.174;2022-10-16T16:36:35;26.20;79.50
7562;DHT22;3822;48.784;9.174;2022-10-16T16:39:02;26.10;79.80
7562;DHT22;3822;48.784;9.174;2022-10-16T16:41:29;26.00;79.90
7562;DHT22;3822;48.784;9.174;2022-10-16T16:44:06;25.90;80.10
7562;DHT22;3822;48.784;9.174;2022-10-16T16:46:34;25.80;80.50
7562;DHT22;3822;48.784;9.174;2022-10-16T16:49:01;25.70;80.80
7562;DHT22;3822;48.784;9.174;2022-10-16T16:51:27;25.60;81.20
7562;DHT22;3822;48.784;9.174;2022-10-16T16:53:54;25.50;81.50
7562;DHT22;3822;48.784;9.174;2022-10-16T16:56:22;25.40;81.90
7562;DHT22;3822;48.784;9.174;2022-10-16T16:58:51;25.30;82.40
7562;DHT22;3822;48.784;9.174;2022-10-16T17:01:20;25.20;82.70
7562;DHT22;3822;48.784;9.174;2022-10-16T17:03:51;25.10;83.00
7562;DHT22;3822;48.784;9.174;2022-10-16T17:06:26;25.10;83.40
7562;DHT22;3822;48.784;9.174;2022-10-16T17:08:55;25.00;83.90
7562;DHT22;3822;48.784;9.174;2022-10-16T17:11:25;24.90;84.30
7562;DHT22;3822;48.784;9.174;2022-10-16T17:13:54;24.80;84.60
7562;DHT22;3822;48.784;9.174;2022-10-16T17:16:25;24.70;85.00
7562;DHT22;3822;48.784;9.174;2022-10-16T17:18:53;24.60;85.30
7562;DHT22;3822;48.784;9.174;2022-10-16T17:21:20;24.50;85.50
7562;DHT22;3822;48.784;9.174;2022-10-16T17:23:50;24.50;85.70
7562;DHT22;3822;48.784;9.174;2022-10-16T17:26:18;24.40;85.80
7562;DHT22;3822;48.784;9.174;2022-10-16T17:28:45;24.30;86.00
7562;DHT22;3822;48.784;9.174;2022-10-16T17:31:23;24.20;86.10
7562;DHT22;3822;48.784;9.174;2022-10-16T17:33:51;24.20;86.40
7562;DHT22;3822;48.784;9.174;2022-10-16T17:36:18;24.10;86.50
7562;DHT22;3822;48.784;9.174;2022-10-16T17:38:46;24.00;86.80
7562;DHT22;3822;48.784;9.174;2022-10-16T17:41:21;24.00;87.00
7562;DHT22;3822;48.784;9.174;2022-10-16T17:43:50;23.90;87.40
7562;DHT22;3822;48.784;9.174;2022-10-16T17:46:19;23.90;87.70
7562;DHT22;3822;48.784;9.174;2022-10-16T17:48:48;23.80;87.80
7562;DHT22;3822;48.784;9.174;2022-10-16T17:51:18;23.70;87.70
7562;DHT22;3822;48.784;9.174;2022-10-16T17:53:50;23.60;87.80
7562;DHT22;3822;48.784;9.174;2022-10-16T17:56:19;23.60;88.20
7562;DHT22;3822;48.784;9.174;2022-10-16T17:58:49;23.50;88.60
7562;DHT22;3822;48.784;9.174;2022-10-16T18:01:25;23.50;88.80
7562;DHT22;3822;48.784;9.174;2022-10-16T18:03:56;23.40;88.90
7562;DHT22;3822;48.784;9.174;2022-10-16T18:06:28;23.30;89.10
7562;DHT22;3822;48.784;9.174;2022-10-16T18:08:58;23.30;89.30
7562;DHT22;3822;48.784;9.174;2022-10-16T18:11:26;23.20;89.50
7562;DHT22;3822;48.784;9.174;2022-10-16T18:13:55;23.10;89.70
7562;DHT22;3822;48.784;9.174;2022-10-16T18:16:24;23.10;90.00
7562;DHT22;3822;48.784;9.174;2022-10-16T18:18:52;23.00;90.10
7562;DHT22;3822;48.784;9.174;2022-10-16T18:21:20;22.90;90.20
7562;DHT22;3822;48.784;9.174;2022-10-16T18:23:47;22.90;90.30
7562;DHT22;3822;48.784;9.174;2022-10-16T18:26:14;22.80;90.40